sensor_id;sensor_type;location;lat;lon;timestamp;P1;durP1;ratioP1;P2;durP2;ratioP2
54679;SDS011;40578;53.178;5.846;2022-10-16T00:01:07;10.17;;;2.47;;
54679;SDS011;40578;53.178;5.846;2022-10-16T00:03:34;8.48;;;1.92;;
54679;SDS011;40578;53.178;5.846;2022-10-16T00:06:00;12.90;;;2.33;;
54679;SDS011;40578;53.178;5.846;2022-10-16T00:08:26;7.53;;;2.22;;
54679;SDS011;40578;53.178;5.846;2022-10-16T00:10:52;7.40;;;1.98;;
54679;SDS011;40578;53.178;5.846;2022-10-16T00:13:23;7.05;;;2.10;;
54679;SDS011;40578;53.178;5.846;2022-10-16T00:15:49;7.23;;;1.90;;
54679;SDS011;40578;53.178;5.846;2022-10-16T00:18:15;9.63;;;2.50;;
54679;SDS011;40578;53.178;5.846;2022-10-16T00:20:41;6.17;;;1.87;;
54679;SDS011;40578;53.178;5.846;2022-10-16T00:23:07;9.82;;;2.05;;
54679;SDS011;40578;53.178;5.846;2022-10-16T00:25:33;9.05;;;1.90;;
54679;SDS011;40578;53.178;5.846;2022-10-16T00:27:59;7.23;;;2.33;;
54679;SDS011;40578;53.178;5.846;2022-10-16T00:30:25;7.95;;;2.40;;
54679;SDS011;40578;53.178;5.846;2022-10-16T00:32:53;6.30;;;1.92;;
54679;SDS011;40578;53.178;5.846;2022-10-16T00:35:18;5.93;;;1.97;;
54679;SDS011;40578;53.178;5.846;2022-10-16T00:37:44;8.93;;;2.30;;
54679;SDS011;40578;53.178;5.846;2022-10-16T00:40:10;8.47;;;2.40;;
54679;SDS011;40578;53.178;5.846;2022-10-16T00:42:35;7.93;;;2.05;;
54679;SDS011;40578;53.178;5.846;2022-10-16T00:45:01;5.27;;;1.97;;
54679;SDS011;40578;53.178;5.846;2022-10-16T00:47:28;9.02;;;2.05;;
54679;SDS011;40578;53.178;5.846;2022-10-16T00:49:56;7.78;;;1.90;;
54679;SDS011;40578;53.178;5.846;2022-10-16T00:52:27;6.07;;;2.00;;
54679;SDS011;40578;53.178;5.846;2022-10-16T00:54:53;6.73;;;1.60;;
54679;SDS011;40578;53.178;5.846;2022-10-16T00:57:21;6.97;;;1.70;;
54679;SDS011;40578;53.178;5.846;2022-10-16T01:02:13;5.15;;;1.83;;
54679;SDS011;40578;53.178;5.846;2022-10-16T01:04:42;8.10;;;1.90;;
54679;SDS011;40578;53.178;5.846;2022-10-16T01:07:12;7.68;;;2.22;;
54679;SDS011;40578;53.178;5.846;2022-10-16T01:09:53;5.35;;;1.73;;
54679;SDS011;40578;53.178;5.846;2022-10-16T01:12:56;9.45;;;2.20;;
54679;SDS011;40578;53.178;5.846;2022-10-16T01:20:51;4.38;;;1.67;;
54679;SDS011;40578;53.178;5.846;2022-10-16T01:31:57;8.18;;;1.77;;
54679;SDS011;40578;53.178;5.846;2022-10-16T01:34:42;5.22;;;1.88;;
54679;SDS011;40578;53.178;5.846;2022-10-16T01:37:25;7.78;;;2.08;;
54679;SDS011;40578;53.178;5.846;2022-10-16T01:40:05;4.97;;;2.40;;
54679;SDS011;40578;53.178;5.846;2022-10-16T01:42:35;6.68;;;1.80;;
54679;SDS011;40578;53.178;5.846;2022-10-16T01:45:07;6.30;;;1.85;;
54679;SDS011;40578;53.178;5.846;2022-10-16T01:47:36;5.53;;;1.55;;
54679;SDS011;40578;53.178;5.846;2022-10-16T01:50:04;4.65;;;1.45;;
54679;SDS011;40578;53.178;5.846;2022-10-16T01:52:30;7.32;;;1.42;;
54679;SDS011;40578;53.178;5.846;2022-10-16T01:55:00;6.78;;;2.05;;
54679;SDS011;40578;53.178;5.846;2022-10-16T01:57:29;7.20;;;1.90;;
54679;SDS011;40578;53.178;5.846;2022-10-16T01:59:57;4.18;;;1.73;;
54679;SDS011;40578;53.178;5.846;2022-10-16T02:02:26;5.72;;;2.20;;
54679;SDS011;40578;53.178;5.846;2022-10-16T02:04:59;4.85;;;2.33;;
54679;SDS011;40578;53.178;5.846;2022-10-16T02:07:30;7.05;;;2.30;;
54679;SDS011;40578;53.178;5.846;2022-10-16T02:09:56;6.30;;;2.10;;
54679;SDS011;40578;53.178;5.846;2022-10-16T02:12:28;4.72;;;2.50;;
54679;SDS011;40578;53.178;5.846;2022-10-16T02:14:57;9.57;;;3.00;;
54679;SDS011;40578;53.178;5.846;2022-10-16T02:17:23;6.53;;;2.73;;
54679;SDS011;40578;53.178;5.846;2022-10-16T02:19:51;5.53;;;2.60;;
54679;SDS011;40578;53.178;5.846;2022-10-16T02:22:41;7.07;;;2.67;;
54679;SDS011;40578;53.178;5.846;2022-10-16T02:28:08;5.82;;;2.55;;
54679;SDS011;40578;53.178;5.846;2022-10-16T02:30:45;6.90;;;2.20;;
54679;SDS011;40578;53.178;5.846;2022-10-16T02:33:13;6.05;;;2.42;;
54679;SDS011;40578;53.178;5.846;2022-10-16T02:35:41;5.38;;;2.40;;
54679;SDS011;40578;53.178;5.846;2022-10-16T02:38:10;6.32;;;2.65;;
54679;SDS011;40578;53.178;5.846;2022-10-16T02:40:37;6.22;;;2.30;;
54679;SDS011;40578;53.178;5.846;2022-10-16T02:43:04;4.85;;;2.50;;
54679;SDS011;40578;53.178;5.846;2022-10-16T02:47:55;5.43;;;2.17;;
54679;SDS011;40578;53.178;5.846;2022-10-16T02:50:21;6.83;;;2.13;;
54679;SDS011;40578;53.178;5.846;2022-10-16T02:52:47;4.60;;;2.30;;
54679;SDS011;40578;53.178;5.846;2022-10-16T02:55:13;6.97;;;2.30;;
54679;SDS011;40578;53.178;5.846;2022-10-16T02:57:39;6.20;;;2.10;;
54679;SDS011;40578;53.178;5.846;2022-10-16T03:00:06;5.43;;;2.03;;
54679;SDS011;40578;53.178;5.846;2022-10-16T03:02:36;4.55;;;2.08;;
54679;SDS011;40578;53.178;5.846;2022-10-16T03:05:02;6.27;;;2.20;;
54679;SDS011;40578;53.178;5.846;2022-10-16T03:07:29;6.80;;;2.40;;
54679;SDS011;40578;53.178;5.846;2022-10-16T03:09:54;5.77;;;2.40;;
54679;SDS011;40578;53.178;5.846;2022-10-16T03:12:20;8.27;;;2.30;;
54679;SDS011;40578;53.178;5.846;2022-10-16T03:14:46;5.07;;;2.17;;
54679;SDS011;40578;53.178;5.846;2022-10-16T03:17:12;10.70;;;2.60;;
54679;SDS011;40578;53.178;5.846;2022-10-16T03:19:38;5.90;;;2.30;;
54679;SDS011;40578;53.178;5.846;2022-10-16T03:22:04;5.03;;;2.03;;
54679;SDS011;40578;53.178;5.846;2022-10-16T03:24:30;5.50;;;2.03;;
54679;SDS011;40578;53.178;5.846;2022-10-16T03:26:55;5.77;;;2.37;;
54679;SDS011;40578;53.178;5.846;2022-10-16T03:29:22;3.63;;;2.00;;
54679;SDS011;40578;53.178;5.846;2022-10-16T03:34:14;4.15;;;1.77;;
54679;SDS011;40578;53.178;5.846;2022-10-16T03:36:42;4.83;;;1.60;;
54679;SDS011;40578;53.178;5.846;2022-10-16T03:39:08;5.28;;;1.70;;
54679;SDS011;40578;53.178;5.846;2022-10-16T03:41:33;5.07;;;1.60;;
54679;SDS011;40578;53.178;5.846;2022-10-16T03:43:59;7.90;;;2.57;;
54679;SDS011;40578;53.178;5.846;2022-10-16T03:46:25;5.83;;;2.03;;
54679;SDS011;40578;53.178;5.846;2022-10-16T03:48:50;7.13;;;2.23;;
54679;SDS011;40578;53.178;5.846;2022-10-16T03:51:16;7.37;;;1.77;;
54679;SDS011;40578;53.178;5.846;2022-10-16T03:53:42;6.43;;;1.60;;
54679;SDS011;40578;53.178;5.846;2022-10-16T03:56:09;6.13;;;1.85;;
54679;SDS011;40578;53.178;5.846;2022-10-16T03:58:35;6.07;;;1.88;;
54679;SDS011;40578;53.178;5.846;2022-10-16T04:01:00;3.90;;;1.70;;
54679;SDS011;40578;53.178;5.846;2022-10-16T04:03:26;3.10;;;1.80;;
54679;SDS011;40578;53.178;5.846;2022-10-16T04:05:52;4.07;;;1.87;;
54679;SDS011;40578;53.178;5.846;2022-10-16T04:08:17;5.33;;;1.93;;
54679;SDS011;40578;53.178;5.846;2022-10-16T04:10:43;7.00;;;1.90;;
54679;SDS011;40578;53.178;5.846;2022-10-16T04:13:09;6.23;;;2.20;;
54679;SDS011;40578;53.178;5.846;2022-10-16T04:15:36;5.55;;;1.70;;
54679;SDS011;40578;53.178;5.846;2022-10-16T04:18:01;5.00;;;2.10;;
54679;SDS011;40578;53.178;5.846;2022-10-16T04:20:27;5.90;;;2.10;;
54679;SDS011;40578;53.178;5.846;2022-10-16T04:22:52;4.53;;;2.00;;
54679;SDS011;40578;53.178;5.846;2022-10-16T04:25:18;5.57;;;2.10;;
54679;SDS011;40578;53.178;5.846;2022-10-16T04:27:44;4.77;;;1.80;;
54679;SDS011;40578;53.178;5.846;2022-10-16T04:30:09;8.93;;;2.20;;
54679;SDS011;40578;53.178;5.846;2022-10-16T04:32:36;5.20;;;2.13;;
54679;SDS011;40578;53.178;5.846;2022-10-16T04:35:01;6.77;;;2.20;;
54679;SDS011;40578;53.178;5.846;2022-10-16T04:37:28;4.35;;;2.28;;
54679;SDS011;40578;53.178;5.846;2022-10-16T04:39:53;3.67;;;1.90;;
54679;SDS011;40578;53.178;5.846;2022-10-16T04:42:19;12.40;;;2.60;;
54679;SDS011;40578;53.178;5.846;2022-10-16T04:44:45;5.85;;;2.30;;
54679;SDS011;40578;53.178;5.846;2022-10-16T04:47:11;5.17;;;2.17;;
54679;SDS011;40578;53.178;5.846;2022-10-16T04:49:37;7.20;;;2.00;;
54679;SDS011;40578;53.178;5.846;2022-10-16T04:52:03;6.70;;;2.20;;
54679;SDS011;40578;53.178;5.846;2022-10-16T04:54:28;4.87;;;2.07;;
54679;SDS011;40578;53.178;5.846;2022-10-16T04:56:54;4.67;;;2.23;;
54679;SDS011;40578;53.178;5.846;2022-10-16T04:59:20;4.20;;;2.03;;
54679;SDS011;40578;53.178;5.846;2022-10-16T05:01:46;6.65;;;1.95;;
54679;SDS011;40578;53.178;5.846;2022-10-16T05:04:12;5.33;;;2.40;;
54679;SDS011;40578;53.178;5.846;2022-10-16T05:06:37;5.13;;;2.13;;
54679;SDS011;40578;53.178;5.846;2022-10-16T05:09:04;7.13;;;2.63;;
54679;SDS011;40578;53.178;5.846;2022-10-16T05:11:30;6.38;;;2.50;;
54679;SDS011;40578;53.178;5.846;2022-10-16T05:13:56;7.40;;;2.83;;
54679;SDS011;40578;53.178;5.846;2022-10-16T05:16:22;6.00;;;2.67;;
54679;SDS011;40578;53.178;5.846;2022-10-16T05:18:47;7.97;;;3.20;;
54679;SDS011;40578;53.178;5.846;2022-10-16T05:21:13;6.77;;;3.40;;
54679;SDS011;40578;53.178;5.846;2022-10-16T05:23:39;8.00;;;3.10;;
54679;SDS011;40578;53.178;5.846;2022-10-16T05:26:04;7.50;;;3.57;;
54679;SDS011;40578;53.178;5.846;2022-10-16T05:28:30;6.27;;;3.27;;
54679;SDS011;40578;53.178;5.846;2022-10-16T05:30:56;5.47;;;3.43;;
54679;SDS011;40578;53.178;5.846;2022-10-16T05:33:23;10.77;;;4.13;;
54679;SDS011;40578;53.178;5.846;2022-10-16T05:35:50;10.05;;;3.70;;
54679;SDS011;40578;53.178;5.846;2022-10-16T05:38:17;6.00;;;3.70;;
54679;SDS011;40578;53.178;5.846;2022-10-16T05:40:43;7.20;;;4.22;;
54679;SDS011;40578;53.178;5.846;2022-10-16T05:43:15;7.63;;;3.70;;
54679;SDS011;40578;53.178;5.846;2022-10-16T05:45:41;7.63;;;4.07;;
54679;SDS011;40578;53.178;5.846;2022-10-16T05:48:06;9.90;;;4.60;;
54679;SDS011;40578;53.178;5.846;2022-10-16T05:50:32;7.70;;;4.23;;
54679;SDS011;40578;53.178;5.846;2022-10-16T05:52:58;6.50;;;3.93;;
54679;SDS011;40578;53.178;5.846;2022-10-16T05:55:24;9.63;;;4.33;;
54679;SDS011;40578;53.178;5.846;2022-10-16T05:57:50;7.13;;;4.50;;
54679;SDS011;40578;53.178;5.846;2022-10-16T06:00:18;9.90;;;4.30;;
54679;SDS011;40578;53.178;5.846;2022-10-16T06:02:44;8.20;;;3.73;;
54679;SDS011;40578;53.178;5.846;2022-10-16T06:05:10;5.50;;;3.13;;
54679;SDS011;40578;53.178;5.846;2022-10-16T06:07:35;11.53;;;3.80;;
54679;SDS011;40578;53.178;5.846;2022-10-16T06:10:01;16.50;;;3.80;;
54679;SDS011;40578;53.178;5.846;2022-10-16T06:12:29;7.30;;;3.50;;
54679;SDS011;40578;53.178;5.846;2022-10-16T06:14:54;9.67;;;4.10;;
54679;SDS011;40578;53.178;5.846;2022-10-16T06:17:20;7.47;;;3.53;;
54679;SDS011;40578;53.178;5.846;2022-10-16T06:19:45;6.20;;;3.60;;
54679;SDS011;40578;53.178;5.846;2022-10-16T06:22:11;11.10;;;3.93;;
54679;SDS011;40578;53.178;5.846;2022-10-16T06:24:37;11.30;;;3.43;;
54679;SDS011;40578;53.178;5.846;2022-10-16T06:27:04;6.70;;;3.10;;
54679;SDS011;40578;53.178;5.846;2022-10-16T06:31:55;9.98;;;3.45;;
54679;SDS011;40578;53.178;5.846;2022-10-16T06:34:21;8.27;;;3.27;;
54679;SDS011;40578;53.178;5.846;2022-10-16T06:36:46;11.23;;;3.20;;
54679;SDS011;40578;53.178;5.846;2022-10-16T06:39:12;5.73;;;2.60;;
54679;SDS011;40578;53.178;5.846;2022-10-16T06:41:38;9.80;;;2.90;;
54679;SDS011;40578;53.178;5.846;2022-10-16T06:44:06;10.00;;;3.17;;
54679;SDS011;40578;53.178;5.846;2022-10-16T06:46:33;7.57;;;2.95;;
54679;SDS011;40578;53.178;5.846;2022-10-16T06:48:59;7.22;;;2.90;;
54679;SDS011;40578;53.178;5.846;2022-10-16T06:51:25;9.50;;;2.87;;
54679;SDS011;40578;53.178;5.846;2022-10-16T06:53:51;8.33;;;3.20;;
54679;SDS011;40578;53.178;5.846;2022-10-16T06:58:54;8.82;;;2.58;;
54679;SDS011;40578;53.178;5.846;2022-10-16T07:01:21;7.40;;;3.20;;
54679;SDS011;40578;53.178;5.846;2022-10-16T07:03:48;8.02;;;3.00;;
54679;SDS011;40578;53.178;5.846;2022-10-16T07:06:15;7.22;;;2.70;;
54679;SDS011;40578;53.178;5.846;2022-10-16T07:08:43;7.93;;;2.72;;
54679;SDS011;40578;53.178;5.846;2022-10-16T07:11:13;8.40;;;2.97;;
54679;SDS011;40578;53.178;5.846;2022-10-16T07:13:40;9.25;;;2.30;;
54679;SDS011;40578;53.178;5.846;2022-10-16T07:18:34;8.02;;;2.45;;
54679;SDS011;40578;53.178;5.846;2022-10-16T07:21:11;6.90;;;2.53;;
54679;SDS011;40578;53.178;5.846;2022-10-16T07:23:39;7.15;;;3.00;;
54679;SDS011;40578;53.178;5.846;2022-10-16T07:26:05;7.88;;;3.15;;
54679;SDS011;40578;53.178;5.846;2022-10-16T07:28:32;9.57;;;2.90;;
54679;SDS011;40578;53.178;5.846;2022-10-16T07:31:02;6.93;;;3.33;;
54679;SDS011;40578;53.178;5.846;2022-10-16T07:33:29;7.63;;;3.53;;
54679;SDS011;40578;53.178;5.846;2022-10-16T07:35:55;11.13;;;3.95;;
54679;SDS011;40578;53.178;5.846;2022-10-16T07:38:21;8.87;;;3.70;;
54679;SDS011;40578;53.178;5.846;2022-10-16T07:40:47;9.25;;;4.50;;
54679;SDS011;40578;53.178;5.846;2022-10-16T07:43:20;9.13;;;4.43;;
54679;SDS011;40578;53.178;5.846;2022-10-16T07:45:47;8.00;;;4.93;;
54679;SDS011;40578;53.178;5.846;2022-10-16T07:48:16;8.40;;;5.13;;
54679;SDS011;40578;53.178;5.846;2022-10-16T07:50:42;8.50;;;5.63;;
54679;SDS011;40578;53.178;5.846;2022-10-16T07:53:09;9.25;;;5.65;;
54679;SDS011;40578;53.178;5.846;2022-10-16T07:55:35;9.38;;;5.60;;
54679;SDS011;40578;53.178;5.846;2022-10-16T07:58:01;8.07;;;5.57;;
54679;SDS011;40578;53.178;5.846;2022-10-16T08:00:26;9.03;;;5.13;;
54679;SDS011;40578;53.178;5.846;2022-10-16T08:02:52;7.83;;;4.87;;
54679;SDS011;40578;53.178;5.846;2022-10-16T08:05:18;9.73;;;4.13;;
54679;SDS011;40578;53.178;5.846;2022-10-16T08:07:48;7.63;;;3.87;;
54679;SDS011;40578;53.178;5.846;2022-10-16T08:10:15;7.15;;;3.13;;
54679;SDS011;40578;53.178;5.846;2022-10-16T08:12:42;6.70;;;3.17;;
54679;SDS011;40578;53.178;5.846;2022-10-16T08:15:08;7.53;;;3.50;;
54679;SDS011;40578;53.178;5.846;2022-10-16T08:17:34;7.32;;;3.45;;
54679;SDS011;40578;53.178;5.846;2022-10-16T08:20:00;7.23;;;3.57;;
54679;SDS011;40578;53.178;5.846;2022-10-16T08:22:26;7.22;;;3.10;;
54679;SDS011;40578;53.178;5.846;2022-10-16T08:24:52;7.13;;;3.33;;
54679;SDS011;40578;53.178;5.846;2022-10-16T08:27:18;8.17;;;3.47;;
54679;SDS011;40578;53.178;5.846;2022-10-16T08:29:43;7.53;;;3.60;;
54679;SDS011;40578;53.178;5.846;2022-10-16T08:32:09;8.03;;;3.80;;
54679;SDS011;40578;53.178;5.846;2022-10-16T08:34:35;8.00;;;3.70;;
54679;SDS011;40578;53.178;5.846;2022-10-16T08:37:00;8.50;;;3.90;;
54679;SDS011;40578;53.178;5.846;2022-10-16T08:39:27;7.82;;;3.55;;
54679;SDS011;40578;53.178;5.846;2022-10-16T08:49:40;8.95;;;3.30;;
54679;SDS011;40578;53.178;5.846;2022-10-16T08:52:15;8.85;;;3.00;;
54679;SDS011;40578;53.178;5.846;2022-10-16T08:54:48;11.60;;;3.88;;
54679;SDS011;40578;53.178;5.846;2022-10-16T08:57:19;8.82;;;3.40;;
54679;SDS011;40578;53.178;5.846;2022-10-16T08:59:46;7.00;;;3.50;;
54679;SDS011;40578;53.178;5.846;2022-10-16T09:02:32;9.73;;;3.33;;
54679;SDS011;40578;53.178;5.846;2022-10-16T09:05:24;8.95;;;3.58;;
54679;SDS011;40578;53.178;5.846;2022-10-16T09:11:02;8.00;;;3.15;;
54679;SDS011;40578;53.178;5.846;2022-10-16T09:13:54;9.43;;;3.20;;
54679;SDS011;40578;53.178;5.846;2022-10-16T09:16:34;11.85;;;3.15;;
54679;SDS011;40578;53.178;5.846;2022-10-16T09:19:09;9.57;;;2.95;;
54679;SDS011;40578;53.178;5.846;2022-10-16T09:21:53;7.25;;;2.80;;
54679;SDS011;40578;53.178;5.846;2022-10-16T09:24:21;9.27;;;2.67;;
54679;SDS011;40578;53.178;5.846;2022-10-16T09:26:50;8.07;;;2.85;;
54679;SDS011;40578;53.178;5.846;2022-10-16T09:29:17;8.40;;;3.20;;
54679;SDS011;40578;53.178;5.846;2022-10-16T09:31:45;7.00;;;2.35;;
54679;SDS011;40578;53.178;5.846;2022-10-16T09:34:32;5.68;;;2.50;;
54679;SDS011;40578;53.178;5.846;2022-10-16T09:36:59;12.35;;;3.30;;
54679;SDS011;40578;53.178;5.846;2022-10-16T09:39:28;10.85;;;2.72;;
54679;SDS011;40578;53.178;5.846;2022-10-16T09:41:53;11.07;;;2.63;;
54679;SDS011;40578;53.178;5.846;2022-10-16T09:46:48;10.73;;;3.28;;
54679;SDS011;40578;53.178;5.846;2022-10-16T09:49:19;9.87;;;2.50;;
54679;SDS011;40578;53.178;5.846;2022-10-16T09:51:50;8.65;;;3.13;;
54679;SDS011;40578;53.178;5.846;2022-10-16T09:54:17;11.10;;;2.40;;
54679;SDS011;40578;53.178;5.846;2022-10-16T09:56:45;8.65;;;3.17;;
54679;SDS011;40578;53.178;5.846;2022-10-16T10:01:42;9.18;;;2.55;;
54679;SDS011;40578;53.178;5.846;2022-10-16T10:04:13;8.52;;;2.50;;
54679;SDS011;40578;53.178;5.846;2022-10-16T10:06:52;10.90;;;2.97;;
54679;SDS011;40578;53.178;5.846;2022-10-16T10:12:04;9.00;;;2.25;;
54679;SDS011;40578;53.178;5.846;2022-10-16T10:14:37;15.07;;;2.97;;
54679;SDS011;40578;53.178;5.846;2022-10-16T10:33:17;13.32;;;2.80;;
54679;SDS011;40578;53.178;5.846;2022-10-16T10:49:09;9.03;;;2.17;;
54679;SDS011;40578;53.178;5.846;2022-10-16T10:54:51;17.50;;;3.00;;
54679;SDS011;40578;53.178;5.846;2022-10-16T11:05:58;14.25;;;2.83;;
54679;SDS011;40578;53.178;5.846;2022-10-16T11:08:41;13.63;;;2.45;;
54679;SDS011;40578;53.178;5.846;2022-10-16T11:11:25;14.20;;;2.20;;
54679;SDS011;40578;53.178;5.846;2022-10-16T11:24:45;14.88;;;2.10;;
54679;SDS011;40578;53.178;5.846;2022-10-16T11:27:16;12.20;;;2.08;;
54679;SDS011;40578;53.178;5.846;2022-10-16T11:29:58;9.48;;;1.80;;
54679;SDS011;40578;53.178;5.846;2022-10-16T11:32:32;10.10;;;1.70;;
54679;SDS011;40578;53.178;5.846;2022-10-16T11:35:28;6.78;;;1.88;;
54679;SDS011;40578;53.178;5.846;2022-10-16T11:38:11;10.23;;;1.38;;
54679;SDS011;40578;53.178;5.846;2022-10-16T11:40:50;13.48;;;2.03;;
54679;SDS011;40578;53.178;5.846;2022-10-16T11:43:28;9.15;;;2.03;;
54679;SDS011;40578;53.178;5.846;2022-10-16T11:46:05;14.05;;;1.80;;
54679;SDS011;40578;53.178;5.846;2022-10-16T11:51:25;12.13;;;1.88;;
54679;SDS011;40578;53.178;5.846;2022-10-16T11:54:21;10.57;;;2.10;;
54679;SDS011;40578;53.178;5.846;2022-10-16T11:56:55;8.68;;;1.75;;
54679;SDS011;40578;53.178;5.846;2022-10-16T11:59:41;13.13;;;2.33;;
54679;SDS011;40578;53.178;5.846;2022-10-16T12:02:25;8.00;;;2.10;;
54679;SDS011;40578;53.178;5.846;2022-10-16T12:05:01;10.07;;;2.20;;
54679;SDS011;40578;53.178;5.846;2022-10-16T12:07:41;10.15;;;2.15;;
54679;SDS011;40578;53.178;5.846;2022-10-16T12:10:22;11.60;;;1.90;;
54679;SDS011;40578;53.178;5.846;2022-10-16T12:12:50;8.48;;;2.15;;
54679;SDS011;40578;53.178;5.846;2022-10-16T12:15:21;11.00;;;2.40;;
54679;SDS011;40578;53.178;5.846;2022-10-16T12:17:51;6.50;;;1.90;;
54679;SDS011;40578;53.178;5.846;2022-10-16T12:20:25;11.15;;;1.90;;
54679;SDS011;40578;53.178;5.846;2022-10-16T12:22:57;10.48;;;2.17;;
54679;SDS011;40578;53.178;5.846;2022-10-16T12:25:29;9.27;;;1.80;;
54679;SDS011;40578;53.178;5.846;2022-10-16T12:28:03;7.28;;;1.77;;
54679;SDS011;40578;53.178;5.846;2022-10-16T12:30:34;7.88;;;2.08;;
54679;SDS011;40578;53.178;5.846;2022-10-16T12:33:05;10.63;;;1.83;;
54679;SDS011;40578;53.178;5.846;2022-10-16T12:35:44;8.13;;;1.60;;
54679;SDS011;40578;53.178;5.846;2022-10-16T12:41:02;10.55;;;1.90;;
54679;SDS011;40578;53.178;5.846;2022-10-16T12:48:35;8.77;;;1.90;;
54679;SDS011;40578;53.178;5.846;2022-10-16T12:51:12;12.88;;;2.28;;
54679;SDS011;40578;53.178;5.846;2022-10-16T12:53:57;15.68;;;2.38;;
54679;SDS011;40578;53.178;5.846;2022-10-16T13:10:44;10.10;;;1.60;;
54679;SDS011;40578;53.178;5.846;2022-10-16T13:19:14;9.70;;;1.67;;
54679;SDS011;40578;53.178;5.846;2022-10-16T13:24:16;13.60;;;1.88;;
54679;SDS011;40578;53.178;5.846;2022-10-16T13:27:07;12.93;;;2.15;;
54679;SDS011;40578;53.178;5.846;2022-10-16T13:29:34;10.57;;;1.85;;
54679;SDS011;40578;53.178;5.846;2022-10-16T13:32:00;13.93;;;2.03;;
54679;SDS011;40578;53.178;5.846;2022-10-16T13:34:32;14.23;;;2.40;;
54679;SDS011;40578;53.178;5.846;2022-10-16T13:37:15;11.23;;;2.63;;
54679;SDS011;40578;53.178;5.846;2022-10-16T13:39:42;10.00;;;2.05;;
54679;SDS011;40578;53.178;5.846;2022-10-16T13:42:12;14.03;;;2.50;;
54679;SDS011;40578;53.178;5.846;2022-10-16T13:44:49;11.80;;;2.15;;
54679;SDS011;40578;53.178;5.846;2022-10-16T13:47:26;12.02;;;2.20;;
54679;SDS011;40578;53.178;5.846;2022-10-16T13:52:26;9.80;;;1.67;;
54679;SDS011;40578;53.178;5.846;2022-10-16T13:54:52;10.38;;;2.03;;
54679;SDS011;40578;53.178;5.846;2022-10-16T13:57:17;11.87;;;2.13;;
54679;SDS011;40578;53.178;5.846;2022-10-16T13:59:46;7.35;;;1.40;;
54679;SDS011;40578;53.178;5.846;2022-10-16T14:02:20;6.57;;;1.40;;
54679;SDS011;40578;53.178;5.846;2022-10-16T14:04:51;11.90;;;2.17;;
54679;SDS011;40578;53.178;5.846;2022-10-16T14:07:28;10.70;;;2.25;;
54679;SDS011;40578;53.178;5.846;2022-10-16T14:10:01;12.65;;;1.83;;
54679;SDS011;40578;53.178;5.846;2022-10-16T14:12:29;10.68;;;1.38;;
54679;SDS011;40578;53.178;5.846;2022-10-16T14:14:55;8.73;;;1.60;;
54679;SDS011;40578;53.178;5.846;2022-10-16T14:17:24;10.23;;;2.38;;
54679;SDS011;40578;53.178;5.846;2022-10-16T14:19:53;9.57;;;1.50;;
54679;SDS011;40578;53.178;5.846;2022-10-16T14:22:28;11.93;;;2.08;;
54679;SDS011;40578;53.178;5.846;2022-10-16T14:25:20;9.60;;;2.00;;
54679;SDS011;40578;53.178;5.846;2022-10-16T14:27:59;8.82;;;1.35;;
54679;SDS011;40578;53.178;5.846;2022-10-16T14:30:25;11.52;;;2.40;;
54679;SDS011;40578;53.178;5.846;2022-10-16T14:32:58;20.58;;;1.95;;
54679;SDS011;40578;53.178;5.846;2022-10-16T14:35:25;12.80;;;1.63;;
54679;SDS011;40578;53.178;5.846;2022-10-16T14:37:58;14.52;;;2.80;;
54679;SDS011;40578;53.178;5.846;2022-10-16T14:40:27;11.73;;;1.70;;
54679;SDS011;40578;53.178;5.846;2022-10-16T14:42:55;12.18;;;2.25;;
54679;SDS011;40578;53.178;5.846;2022-10-16T14:45:21;8.93;;;1.70;;
54679;SDS011;40578;53.178;5.846;2022-10-16T14:47:55;12.88;;;2.25;;
54679;SDS011;40578;53.178;5.846;2022-10-16T14:50:30;11.15;;;1.85;;
54679;SDS011;40578;53.178;5.846;2022-10-16T14:52:56;12.10;;;2.00;;
54679;SDS011;40578;53.178;5.846;2022-10-16T14:55:22;11.55;;;1.67;;
54679;SDS011;40578;53.178;5.846;2022-10-16T15:00:22;9.82;;;1.38;;
54679;SDS011;40578;53.178;5.846;2022-10-16T15:02:52;11.57;;;1.92;;
54679;SDS011;40578;53.178;5.846;2022-10-16T15:05:25;12.38;;;1.88;;
54679;SDS011;40578;53.178;5.846;2022-10-16T15:07:55;8.88;;;2.30;;
54679;SDS011;40578;53.178;5.846;2022-10-16T15:10:23;9.80;;;1.65;;
54679;SDS011;40578;53.178;5.846;2022-10-16T15:12:51;14.80;;;2.10;;
54679;SDS011;40578;53.178;5.846;2022-10-16T15:18:03;10.02;;;2.47;;
54679;SDS011;40578;53.178;5.846;2022-10-16T15:20:31;14.70;;;2.97;;
54679;SDS011;40578;53.178;5.846;2022-10-16T15:23:21;11.35;;;2.67;;
54679;SDS011;40578;53.178;5.846;2022-10-16T15:25:50;12.38;;;2.00;;
54679;SDS011;40578;53.178;5.846;2022-10-16T15:28:19;11.57;;;2.15;;
54679;SDS011;40578;53.178;5.846;2022-10-16T15:30:46;12.15;;;2.40;;
54679;SDS011;40578;53.178;5.846;2022-10-16T15:33:16;17.77;;;2.63;;
54679;SDS011;40578;53.178;5.846;2022-10-16T15:35:45;11.90;;;2.55;;
54679;SDS011;40578;53.178;5.846;2022-10-16T15:38:13;13.43;;;2.40;;
54679;SDS011;40578;53.178;5.846;2022-10-16T15:40:39;8.98;;;1.80;;
54679;SDS011;40578;53.178;5.846;2022-10-16T15:43:06;10.77;;;2.30;;
54679;SDS011;40578;53.178;5.846;2022-10-16T15:45:36;11.23;;;1.95;;
54679;SDS011;40578;53.178;5.846;2022-10-16T15:48:04;13.77;;;2.63;;
54679;SDS011;40578;53.178;5.846;2022-10-16T15:50:39;9.13;;;1.83;;
54679;SDS011;40578;53.178;5.846;2022-10-16T15:53:05;11.45;;;2.00;;
54679;SDS011;40578;53.178;5.846;2022-10-16T15:55:34;9.25;;;1.98;;
54679;SDS011;40578;53.178;5.846;2022-10-16T15:58:02;14.57;;;2.50;;
54679;SDS011;40578;53.178;5.846;2022-10-16T16:00:29;10.52;;;2.10;;
54679;SDS011;40578;53.178;5.846;2022-10-16T16:02:54;16.07;;;2.20;;
54679;SDS011;40578;53.178;5.846;2022-10-16T16:05:20;9.50;;;1.90;;
54679;SDS011;40578;53.178;5.846;2022-10-16T16:07:47;16.92;;;3.00;;
54679;SDS011;40578;53.178;5.846;2022-10-16T16:10:13;12.75;;;1.88;;
54679;SDS011;40578;53.178;5.846;2022-10-16T16:12:39;8.57;;;1.33;;
54679;SDS011;40578;53.178;5.846;2022-10-16T16:15:05;11.75;;;1.92;;
54679;SDS011;40578;53.178;5.846;2022-10-16T16:17:33;18.67;;;2.92;;
54679;SDS011;40578;53.178;5.846;2022-10-16T16:20:01;13.65;;;2.20;;
54679;SDS011;40578;53.178;5.846;2022-10-16T16:22:35;11.00;;;2.00;;
54679;SDS011;40578;53.178;5.846;2022-10-16T16:25:07;10.63;;;2.30;;
54679;SDS011;40578;53.178;5.846;2022-10-16T16:27:33;10.57;;;1.98;;
54679;SDS011;40578;53.178;5.846;2022-10-16T16:30:00;16.37;;;2.67;;
54679;SDS011;40578;53.178;5.846;2022-10-16T16:32:28;10.65;;;2.30;;
54679;SDS011;40578;53.178;5.846;2022-10-16T16:34:54;11.13;;;2.67;;
54679;SDS011;40578;53.178;5.846;2022-10-16T16:37:19;13.40;;;2.03;;
54679;SDS011;40578;53.178;5.846;2022-10-16T16:39:45;9.87;;;2.03;;
54679;SDS011;40578;53.178;5.846;2022-10-16T16:42:10;11.23;;;2.00;;
54679;SDS011;40578;53.178;5.846;2022-10-16T16:44:36;15.43;;;2.10;;
54679;SDS011;40578;53.178;5.846;2022-10-16T16:47:03;12.23;;;2.42;;
54679;SDS011;40578;53.178;5.846;2022-10-16T16:51:54;8.93;;;2.10;;
54679;SDS011;40578;53.178;5.846;2022-10-16T16:54:20;15.53;;;3.10;;
54679;SDS011;40578;53.178;5.846;2022-10-16T16:56:46;11.73;;;2.77;;
54679;SDS011;40578;53.178;5.846;2022-10-16T16:59:14;11.67;;;2.27;;
54679;SDS011;40578;53.178;5.846;2022-10-16T17:01:45;12.23;;;2.35;;
54679;SDS011;40578;53.178;5.846;2022-10-16T17:04:11;11.77;;;2.70;;
54679;SDS011;40578;53.178;5.846;2022-10-16T17:09:04;17.90;;;3.05;;
54679;SDS011;40578;53.178;5.846;2022-10-16T17:13:57;9.55;;;2.72;;
54679;SDS011;40578;53.178;5.846;2022-10-16T17:16:28;13.60;;;3.42;;
54679;SDS011;40578;53.178;5.846;2022-10-16T17:18:58;18.10;;;3.45;;
54679;SDS011;40578;53.178;5.846;2022-10-16T17:21:29;14.43;;;3.78;;
54679;SDS011;40578;53.178;5.846;2022-10-16T17:23:56;17.23;;;4.15;;
54679;SDS011;40578;53.178;5.846;2022-10-16T17:26:23;17.92;;;3.80;;